Logo AVAMET
Benvolgut visitant, si us plau, ingressa Recuperar contrasenya

Inforatge Castelló de la Plana Tetuan

Dades diàries. Acumulats / Últims 30 dies disponibles

Data Temperatura (°C) Humitat rel. (%) Pressió rel. (hPa) Vent (km/h) Precipitació
Mínima Mitjana Màxima Amplitud
tèrmica
Mínima Mitjana Màxima Mínima Mitjana Màxima Predom. Mitjana Ràfega
màxima
Total
(mm)
Índex-n
Mínima Mitjana Màxima Mínima Mitjana Màxima n
0 a 1
P0 max
mm 5'
Dades mensuals acumulades fins l'últim dia disponible
07/2019 21,3 23,0 25,1 26,7 28,9 30,2 31,5 10,2 33 67 88 1.009 1.014 1.018   5,7 38,9 11,0
Dades anuals acumulades fins l'últim dia disponible
2019 2,3 12,5 25,1 16,8 12,3 21,0 37,5 35,2 16 62 95 990 1.018 1.036   6,6 90,7 86,8
Últims 30 dies disponibles
16-07-2019 22,9     26,3     29,2 6,3 51 67 82 1.014 1.016 1.017 SE 7,3 33,9 0,0
15-07-2019 23,1     26,5     30,0 6,9 56 65 77 1.010 1.011 1.014 SSE 5,9 31,5 0,0
14-07-2019 23,2     25,8     29,1 5,9 62 74 87 1.010 1.011 1.013 SSE 4,8 33,9 4,2 0,68 2,40
13-07-2019 25,1     27,4     31,1 6,0 38 59 81 1.012 1.014 1.016 ESE 6,0 29,6 0,0
12-07-2019 23,6     27,7     31,3 7,7 33 62 75 1.014 1.015 1.016 SE 4,3 25,9 0,0
11-07-2019 22,4     27,0     30,7 8,3 52 66 83 1.013 1.014 1.015 S 5,4 24,1 0,0
10-07-2019 22,7     25,9     28,9 6,2 54 66 80 1.014 1.015 1.016 S 6,0 31,5 0,0
09-07-2019 23,3     26,2     29,6 6,3 44 64 77 1.010 1.012 1.015 S 8,5 38,9 0,0
08-07-2019 22,7     26,1     28,9 6,2 60 72 86 1.010 1.012 1.016 SE 6,6 35,4 3,0 0,20
07-07-2019 23,3     26,8     30,4 7,1 57 76 88 1.009 1.011 1.014 SE 7,1 33,9 3,8
06-07-2019 23,6     27,0     30,8 7,2 65 79 88 1.010 1.013 1.016 SE 4,0 27,8 0,0
05-07-2019 23,1     26,6     30,3 7,2 56 73 84 1.014 1.016 1.018 SE 5,0 27,8 0,0
04-07-2019 23,2     27,3     31,5 8,3 42 55 79 1.015 1.016 1.017 SSE 4,5 25,9 0,0
03-07-2019 22,0     26,9     30,7 8,7 41 57 68 1.014 1.015 1.015 SSE 4,8 31,5 0,0
02-07-2019 22,7     26,7     30,1 7,4 51 63 80 1.014 1.016 1.017 SSE 5,3 25,9 0,0
01-07-2019 21,3     26,3     29,9 8,6 47 66 86 1.015 1.016 1.018 SE 6,4 33,9 0,0
30-06-2019 23,0     27,1     30,4 7,4 46 60 85 1.015 1.017 1.018 SE 4,7 25,9 0,0
29-06-2019 21,5     30,5     37,5 16,0 16 37 58 1.014 1.014 1.016 S 5,2 27,8 0,0
28-06-2019 21,6     28,2     34,2 12,6 34 58 88 1.015 1.017 1.019 SSE 3,7 20,9 0,0
27-06-2019 22,5     26,9     31,6 9,1 43 62 82 1.018 1.020 1.021 SE 5,0 29,6 0,0
26-06-2019 21,5     25,3     28,5 7,0 60 74 87 1.017 1.019 1.020 SE 9,2 45,0 0,0
25-06-2019 21,3     23,6     26,8 5,5 70 79 87 1.015 1.017 1.019 ESE 9,7 50,0 0,0
24-06-2019 19,8     23,8     28,0 8,2 49 70 84 1.013 1.015 1.017 SE 8,8 45,0 0,0
23-06-2019 18,8     23,7     28,1 9,3 53 71 87 1.013 1.015 1.016 SE 4,8 27,8 0,0
22-06-2019 20,1     23,1     25,8 5,7 62 72 81 1.015 1.017 1.018 SSE 6,2 31,5 0,0
21-06-2019 19,9     22,5     25,1 5,2 65 74 83 1.013 1.015 1.017 ESE 8,6 37,0 0,0
20-06-2019 19,2     22,3     25,4 6,2 66 78 86 1.012 1.013 1.015 ESE 9,6 38,9 0,0
19-06-2019 18,3     22,8     26,4 8,1 61 70 85 1.011 1.013 1.014 ESE 4,9 25,9 0,0
18-06-2019 19,6     22,5     26,1 6,5 51 66 81 1.013 1.015 1.017 ESE 5,2 29,6 0,0
17-06-2019 17,7     21,7     25,5 7,8 54 72 87 1.016 1.017 1.019 SSE 4,9 27,8 0,0
Últims 13 mesos disponibles
06/2019 12,7 18,6 23,0 22,7 21,1 26,6 37,5 24,8 37 63 79 1.008 1.015 1.022 SE 6,6 50,0 0,0
05/2019 9,6 14,4 17,5 18,3 17,9 22,2 28,2 18,6 48 66 82 1.004 1.015 1.024 SSE 6,3 61,1 15,2
04/2019 8,2 11,8 14,8 15,5 16,1 19,5 27,1 18,9 43 62 85 998 1.013 1.025 S 9,3 75,9 49,6
03/2019 6,3 10,1 14,2 14,7 13,2 19,2 25,5 19,2 38 58 79 1.011 1.023 1.030 S 6,0 51,9 10,6
02/2019 3,1 7,7 10,8 12,4 12,7 17,2 23,7 20,6 29 64 80 992 1.024 1.034 S 5,4 90,7 0,2
01/2019 2,3 6,7 10,2 11,7 12,3 16,3 22,9 20,6 34 57 81 1.000 1.018 1.030 SSO 6,5 83,3 0,2
12/2018 5,3 9,5 12,6 13,6 14,4 17,9 24,0 18,7 51 70 87 1.007 1.025 1.030 SSO 3,2 90,7 7,4
11/2018 7,3 11,4 16,3 15,0 14,6 18,9 21,6 14,3 53 70 86 1.001 1.015 1.024 SO 5,2 61,1 83,0
10/2018 7,3 15,4 19,5 19,0 14,8 22,8 28,1 20,8 37 68 88 999 1.014 1.026 SSE 6,8 61,1 131,2
09/2018 17,4 20,9 23,8 24,4 24,7 27,8 30,9 13,5 51 73 83 1.012 1.019 1.029 5,9 50,0 65,0
08/2018 20,4 22,1 24,6 25,9 26,8 29,4 31,9 11,5 58 68 80 1.015 1.017 1.020 5,1 42,6 84,2
07/2018 22,1 24,3 26,6 26,9 28,2 29,7 32,4 10,3 55 65 73 1.010 1.016 1.020 5,4 40,7 0,0
06/2018 15,2 20,1 24,9 23,6 22,7 26,8 30,7 15,5 46 65 79 1.010 1.015 1.021 5,6 51,9 26,4
Tots els anys disponibles
Temperatura (°C)
Humitat relativa (%)
Velocitat del vent i ràfega màxima (km/h)
Direcció del vent (°)
Pressió (hPa)
Precipitació (mm)
Nota sobre les dades: s'avisa a l'usuari de la provisionalitat i no oficialitat d'aquestes dades
Logo AVAMET blanc
Web allotjada a Sollutia
Llicència de Creative CommonsLa web d'AVAMET i els seus continguts estan subjectes a una llicència de
Reconeixement - No Comercial - Compartir igual
Properes estacions: Altea - Club Nàutic d'Altea (Soci), Ares del Maestrat (Ajuntament Soci),      - - - - -      Últimes estacions: Catadau - Urb. Lloma Molina (Inforatge), Ontinyent - El Pilar (Soci), Asp - Poliesportiu (Soci) - - -